Time;durP1;ratioP1;P1;durP2;ratioP2;P2;SDS_P1;SDS_P2;PMS_P1;PMS_P2;Temp;Humidity;BMP_temperature;BMP_pressure;BME280_temperature;BME280_humidity;BME280_pressure;Samples;Min_cycle;Max_cycle;Signal;HPM_P1;HPM_P2
2023/12/22 00:01:58;;;;;;;7.00;1.70;;;5.80;99.90;;;;;;5036851;28;20492;-78
2023/12/22 00:04:25;;;;;;;7.40;1.90;;;5.80;99.90;;;;;;5037611;28;20453;-79
2023/12/22 00:06:52;;;;;;;7.07;1.80;;;5.80;99.90;;;;;;5037154;28;20898;-79
2023/12/22 00:09:19;;;;;;;7.33;2.37;;;5.80;99.90;;;;;;5037278;28;20483;-79
2023/12/22 00:11:47;;;;;;;6.57;1.70;;;5.80;99.90;;;;;;5037314;28;20455;-78
2023/12/22 00:14:14;;;;;;;9.37;2.50;;;5.80;99.90;;;;;;5037061;28;20479;-78
2023/12/22 00:16:41;;;;;;;7.00;1.50;;;5.80;99.90;;;;;;5036744;28;20457;-78
2023/12/22 00:19:10;;;;;;;7.73;1.83;;;5.80;99.90;;;;;;5037062;28;20852;-78
2023/12/22 00:21:37;;;;;;;8.00;1.83;;;5.70;99.90;;;;;;5036679;28;20495;-78
2023/12/22 00:24:04;;;;;;;8.50;2.20;;;5.70;99.90;;;;;;5037381;28;20460;-78
2023/12/22 00:26:30;;;;;;;8.87;1.67;;;5.70;99.90;;;;;;5037062;28;21019;-78
2023/12/22 00:28:59;;;;;;;4.80;1.53;;;5.70;99.90;;;;;;5037542;28;20466;-77
2023/12/22 00:31:25;;;;;;;4.60;1.93;;;5.80;99.90;;;;;;5035695;28;20453;-77
2023/12/22 00:33:52;;;;;;;17.40;2.40;;;5.80;99.90;;;;;;5037129;28;20910;-78
2023/12/22 00:36:22;;;;;;;3.10;1.50;;;5.80;99.90;;;;;;5037257;28;20486;-80
2023/12/22 00:38:52;;;;;;;5.00;1.80;;;5.90;99.90;;;;;;5037416;28;20829;-79
2023/12/22 00:41:19;;;;;;;7.57;1.70;;;5.90;99.90;;;;;;5045487;28;20586;-77
2023/12/22 00:43:46;;;;;;;8.60;2.23;;;5.90;99.90;;;;;;5047077;28;20479;-79
2023/12/22 00:46:14;;;;;;;7.00;1.43;;;6.00;99.90;;;;;;5046834;28;20516;-78
2023/12/22 00:48:41;;;;;;;8.13;2.13;;;6.10;99.90;;;;;;5046755;28;20630;-78
2023/12/22 00:51:08;;;;;;;7.80;1.73;;;6.10;99.90;;;;;;5046904;28;20480;-79
2023/12/22 00:53:34;;;;;;;5.30;1.87;;;6.10;99.90;;;;;;5047007;28;20455;-77
2023/12/22 00:56:02;;;;;;;9.47;2.17;;;6.00;99.90;;;;;;5046514;28;20456;-77
2023/12/22 00:58:29;;;;;;;8.63;1.80;;;6.00;99.90;;;;;;5047081;28;20457;-77
2023/12/22 01:00:56;;;;;;;8.73;1.60;;;5.90;99.90;;;;;;5028896;28;20492;-77
2023/12/22 01:03:24;;;;;;;12.70;1.67;;;5.90;99.90;;;;;;5046954;28;20488;-77
2023/12/22 01:05:51;;;;;;;6.60;1.50;;;5.90;99.90;;;;;;5041696;28;21090;-81
2023/12/22 01:08:17;;;;;;;6.30;1.80;;;5.90;99.90;;;;;;5037471;28;20467;-79
2023/12/22 01:10:44;;;;;;;9.10;2.63;;;5.90;99.90;;;;;;5035858;28;20480;-81
2023/12/22 01:13:11;;;;;;;11.83;1.87;;;6.00;99.90;;;;;;5036123;28;21148;-81
2023/12/22 01:15:38;;;;;;;5.50;1.57;;;6.00;99.90;;;;;;5036675;28;20834;-78
2023/12/22 01:18:05;;;;;;;5.50;1.70;;;6.00;99.90;;;;;;5035992;28;20464;-80
2023/12/22 01:20:33;;;;;;;9.13;2.43;;;6.10;99.90;;;;;;5035945;28;20472;-79
2023/12/22 01:23:00;;;;;;;7.27;1.40;;;6.20;99.90;;;;;;5027715;28;20506;-80
2023/12/22 01:25:27;;;;;;;9.40;1.80;;;6.20;99.90;;;;;;5036320;28;20461;-81
2023/12/22 01:27:53;;;;;;;8.20;1.90;;;6.30;99.90;;;;;;5035772;28;20457;-80
2023/12/22 01:30:20;;;;;;;5.73;1.60;;;6.30;99.90;;;;;;5035458;28;20552;-80
2023/12/22 01:32:47;;;;;;;10.10;1.77;;;6.40;99.90;;;;;;5035458;28;20933;-78
2023/12/22 01:35:14;;;;;;;10.07;2.57;;;6.40;99.90;;;;;;5035113;28;20460;-80
2023/12/22 01:37:42;;;;;;;7.67;2.00;;;6.40;99.90;;;;;;5035059;28;20849;-80
2023/12/22 01:40:09;;;;;;;9.37;2.47;;;6.40;99.90;;;;;;5034863;28;20472;-80
2023/12/22 01:42:36;;;;;;;10.13;2.20;;;6.40;99.90;;;;;;5034904;28;20911;-77
2023/12/22 01:45:03;;;;;;;6.80;1.93;;;6.50;99.90;;;;;;5034644;28;20972;-80
2023/12/22 01:47:30;;;;;;;6.03;1.40;;;6.50;99.90;;;;;;5034508;28;20464;-79
2023/12/22 01:49:57;;;;;;;5.23;1.40;;;6.50;99.90;;;;;;5034617;28;21030;-80
2023/12/22 01:52:25;;;;;;;5.60;1.17;;;6.60;99.90;;;;;;5034833;28;20452;-80
2023/12/22 01:54:54;;;;;;;3.40;1.10;;;6.50;99.90;;;;;;5035147;28;20828;-80
2023/12/22 01:57:22;;;;;;;4.13;1.27;;;6.60;99.90;;;;;;5035211;28;20543;-80
2023/12/22 01:59:50;;;;;;;3.00;1.37;;;6.60;99.90;;;;;;5034856;28;20479;-80
2023/12/22 02:02:17;;;;;;;4.67;1.10;;;6.50;99.90;;;;;;5034941;28;20493;-81
2023/12/22 02:04:45;;;;;;;3.00;1.00;;;6.40;99.90;;;;;;5034938;28;20467;-81
2023/12/22 02:07:12;;;;;;;2.87;1.10;;;6.30;99.90;;;;;;5035342;28;20463;-80
2023/12/22 02:09:39;;;;;;;3.53;0.80;;;6.30;99.90;;;;;;5034864;28;20469;-80
2023/12/22 02:12:08;;;;;;;4.13;1.70;;;6.20;99.90;;;;;;5034773;28;20548;-79
2023/12/22 02:14:35;;;;;;;2.80;0.90;;;6.10;99.90;;;;;;5034779;28;20547;-79
2023/12/22 02:17:11;;;;;;;5.93;0.93;;;6.10;99.90;;;;;;5035250;28;20453;-80
2023/12/22 02:19:43;;;;;;;2.97;0.97;;;6.00;99.90;;;;;;5036451;28;20483;-81
2023/12/22 02:22:12;;;;;;;2.50;0.93;;;6.00;99.90;;;;;;5036587;28;20535;-80
2023/12/22 02:24:41;;;;;;;3.20;0.90;;;6.00;99.90;;;;;;5036367;28;20467;-80
2023/12/22 02:27:16;;;;;;;3.17;1.30;;;6.00;99.90;;;;;;5035072;28;20933;-80
2023/12/22 02:29:47;;;;;;;6.63;1.00;;;6.00;99.90;;;;;;5034608;28;20487;-80
2023/12/22 02:32:19;;;;;;;3.93;1.10;;;6.10;99.90;;;;;;5034901;28;20983;-79
2023/12/22 02:34:50;;;;;;;6.90;1.27;;;6.10;99.90;;;;;;5032172;28;20466;-78
2023/12/22 02:37:18;;;;;;;6.50;1.33;;;6.20;99.90;;;;;;5034065;28;20457;-79
2023/12/22 02:39:47;;;;;;;5.07;1.50;;;6.20;99.90;;;;;;5034539;28;20476;-79
2023/12/22 02:42:14;;;;;;;4.60;1.40;;;6.20;99.90;;;;;;5034087;28;20495;-77
2023/12/22 02:44:41;;;;;;;5.90;1.60;;;6.10;99.90;;;;;;5026169;28;20478;-78
2023/12/22 02:47:08;;;;;;;4.33;1.33;;;6.10;99.90;;;;;;5034739;28;20457;-78
2023/12/22 02:49:34;;;;;;;4.60;1.63;;;6.00;99.90;;;;;;5034390;28;20476;-78
2023/12/22 02:52:01;;;;;;;4.77;1.40;;;6.00;99.90;;;;;;5034350;28;20829;-78
2023/12/22 02:54:31;;;;;;;4.97;1.30;;;6.00;99.90;;;;;;5034572;28;20452;-79
2023/12/22 02:57:00;;;;;;;3.93;1.37;;;6.00;99.90;;;;;;5033971;28;20984;-79
2023/12/22 02:59:28;;;;;;;5.23;1.80;;;6.00;99.90;;;;;;5033902;28;20477;-80
2023/12/22 03:01:55;;;;;;;5.77;1.43;;;6.00;99.90;;;;;;5034377;28;20847;-79
2023/12/22 03:04:21;;;;;;;3.07;1.23;;;5.90;99.90;;;;;;5034163;28;20448;-78
2023/12/22 03:06:48;;;;;;;4.73;1.20;;;5.90;99.90;;;;;;5034019;28;20470;-79
2023/12/22 03:09:15;;;;;;;13.10;2.57;;;5.90;99.90;;;;;;5037753;28;20523;-80
2023/12/22 03:11:42;;;;;;;4.70;1.27;;;5.90;99.90;;;;;;5038148;28;20938;-79
2023/12/22 03:14:10;;;;;;;4.07;1.20;;;6.00;99.90;;;;;;5037857;28;20839;-79
2023/12/22 03:16:37;;;;;;;4.30;1.10;;;6.00;99.90;;;;;;5037894;28;20455;-80
2023/12/22 03:19:04;;;;;;;5.80;1.80;;;6.00;99.90;;;;;;5037786;28;20453;-79
2023/12/22 03:21:31;;;;;;;3.63;1.30;;;6.10;99.90;;;;;;5037572;28;20472;-78
2023/12/22 03:23:58;;;;;;;7.00;1.90;;;6.10;99.90;;;;;;5037995;28;20456;-78
2023/12/22 03:26:27;;;;;;;5.50;1.63;;;6.20;99.90;;;;;;5038037;28;20805;-79
2023/12/22 03:28:53;;;;;;;11.60;1.87;;;6.30;99.90;;;;;;5038327;28;20472;-79
2023/12/22 03:31:22;;;;;;;9.97;1.87;;;6.40;99.90;;;;;;5037451;28;20476;-79
2023/12/22 03:33:48;;;;;;;3.90;1.67;;;6.40;99.90;;;;;;5036354;28;20457;-79
2023/12/22 03:36:15;;;;;;;4.10;1.67;;;6.50;99.90;;;;;;5038064;28;20471;-78
2023/12/22 03:38:46;;;;;;;4.63;1.67;;;6.50;99.90;;;;;;5038245;28;20509;-77
2023/12/22 03:41:13;;;;;;;8.03;2.30;;;6.60;99.90;;;;;;5037739;28;20480;-78
2023/12/22 03:43:39;;;;;;;4.07;2.00;;;6.60;99.90;;;;;;5037174;28;20488;-79
2023/12/22 03:46:06;;;;;;;5.80;1.60;;;6.70;99.90;;;;;;5037184;28;20461;-79
2023/12/22 03:48:34;;;;;;;22.80;9.13;;;6.70;99.90;;;;;;5037246;28;20459;-79
2023/12/22 03:51:01;;;;;;;20.97;8.90;;;6.70;99.90;;;;;;5028871;28;20847;-80
2023/12/22 03:53:28;;;;;;;6.00;2.53;;;6.70;99.90;;;;;;5037170;28;20441;-80
2023/12/22 03:55:55;;;;;;;9.43;2.80;;;6.60;99.90;;;;;;5037341;28;20463;-79
2023/12/22 03:58:22;;;;;;;8.97;2.00;;;6.60;99.90;;;;;;5036794;28;20464;-80
2023/12/22 04:00:49;;;;;;;9.23;1.90;;;6.50;99.90;;;;;;5036667;28;20504;-79
2023/12/22 04:03:15;;;;;;;10.30;1.73;;;6.30;99.90;;;;;;5037075;28;20878;-80
2023/12/22 04:05:44;;;;;;;12.00;2.43;;;6.30;99.90;;;;;;5036876;28;20856;-81
2023/12/22 04:08:10;;;;;;;7.73;2.40;;;6.20;99.90;;;;;;5036467;28;20456;-79
2023/12/22 04:10:37;;;;;;;10.30;2.87;;;6.20;99.90;;;;;;5036138;28;20514;-78
2023/12/22 04:13:04;;;;;;;10.17;2.70;;;6.20;99.90;;;;;;5035830;28;20452;-79
2023/12/22 04:15:31;;;;;;;13.17;2.40;;;6.20;99.90;;;;;;5038887;28;20781;-79
2023/12/22 04:17:58;;;;;;;15.77;2.67;;;6.20;99.90;;;;;;5040935;28;20448;-81
2023/12/22 04:20:25;;;;;;;7.73;1.33;;;6.10;99.90;;;;;;5033664;28;20482;-81
2023/12/22 04:22:53;;;;;;;7.93;2.27;;;6.10;99.90;;;;;;5039822;28;20495;-81
2023/12/22 04:25:19;;;;;;;3.20;1.10;;;5.80;99.90;;;;;;5038323;28;20463;-80
2023/12/22 04:27:46;;;;;;;3.70;0.90;;;5.80;99.90;;;;;;5037500;28;20455;-79
2023/12/22 04:30:13;;;;;;;11.63;1.60;;;5.70;99.90;;;;;;5035404;28;20476;-81
2023/12/22 04:32:40;;;;;;;8.40;2.40;;;5.50;99.90;;;;;;5035584;28;20460;-79
2023/12/22 04:35:08;;;;;;;4.83;1.43;;;5.40;99.90;;;;;;5035380;28;20997;-80
2023/12/22 04:37:35;;;;;;;3.73;1.37;;;5.40;99.90;;;;;;5035633;28;20468;-80
2023/12/22 04:40:03;;;;;;;3.40;1.23;;;5.40;99.90;;;;;;5035113;28;20476;-80
2023/12/22 04:42:30;;;;;;;4.37;1.10;;;5.30;99.90;;;;;;5035312;28;21052;-81
2023/12/22 04:44:57;;;;;;;3.57;1.13;;;5.30;99.90;;;;;;5034638;28;20471;-80
2023/12/22 04:47:23;;;;;;;6.77;1.33;;;5.40;99.90;;;;;;5034686;28;20455;-80
2023/12/22 04:49:50;;;;;;;5.10;1.07;;;5.40;99.90;;;;;;5034263;28;20482;-80
2023/12/22 04:52:17;;;;;;;5.80;1.10;;;5.40;99.90;;;;;;5034706;28;20517;-80
2023/12/22 04:54:44;;;;;;;11.97;2.10;;;5.40;99.90;;;;;;5034896;28;20457;-79
2023/12/22 04:57:12;;;;;;;6.20;1.57;;;5.30;99.90;;;;;;5034505;28;20457;-80
2023/12/22 04:59:39;;;;;;;4.77;0.93;;;5.30;99.90;;;;;;5034182;28;21014;-80
2023/12/22 05:02:05;;;;;;;4.10;1.23;;;5.30;99.90;;;;;;5034821;28;20860;-79
2023/12/22 05:04:33;;;;;;;5.23;1.30;;;5.30;99.90;;;;;;5034396;28;20457;-79
2023/12/22 05:07:00;;;;;;;5.10;1.23;;;5.30;99.90;;;;;;5025937;28;20443;-80
2023/12/22 05:09:28;;;;;;;7.07;1.27;;;5.30;99.90;;;;;;5034404;28;20491;-80
2023/12/22 05:11:55;;;;;;;4.53;1.10;;;5.20;99.90;;;;;;5035061;28;20573;-79
2023/12/22 05:14:23;;;;;;;3.67;1.97;;;5.20;99.90;;;;;;5034251;28;20452;-78
2023/12/22 05:16:50;;;;;;;6.90;1.17;;;5.20;99.90;;;;;;5035432;28;20449;-79
2023/12/22 05:19:17;;;;;;;6.00;1.33;;;5.20;99.90;;;;;;5034977;28;20467;-80
2023/12/22 05:21:44;;;;;;;3.30;1.37;;;5.20;99.90;;;;;;5034226;28;20471;-81
2023/12/22 05:24:11;;;;;;;4.83;1.20;;;5.20;99.90;;;;;;5034603;28;20494;-80
2023/12/22 05:26:38;;;;;;;7.37;1.17;;;5.20;99.90;;;;;;5033662;28;20463;-80
2023/12/22 05:29:04;;;;;;;10.20;1.90;;;5.30;99.90;;;;;;5033571;28;20454;-80
2023/12/22 05:31:34;;;;;;;3.60;1.30;;;5.30;99.90;;;;;;5033564;28;20940;-81
2023/12/22 05:34:01;;;;;;;5.33;1.30;;;5.40;99.90;;;;;;5033964;28;20492;-81
2023/12/22 05:36:30;;;;;;;3.43;1.47;;;5.40;99.90;;;;;;5033793;28;20463;-81
2023/12/22 05:38:57;;;;;;;5.50;1.63;;;5.40;99.90;;;;;;5030460;28;20446;-80
2023/12/22 05:41:23;;;;;;;5.20;1.30;;;5.50;99.90;;;;;;5033819;28;20454;-81
2023/12/22 05:43:50;;;;;;;5.50;1.37;;;5.50;99.90;;;;;;5025303;28;20495;-82
2023/12/22 05:46:17;;;;;;;14.80;5.10;;;5.50;99.90;;;;;;5033844;28;20509;-81
2023/12/22 05:48:45;;;;;;;7.50;1.63;;;5.50;99.90;;;;;;5033936;28;20459;-81
2023/12/22 05:51:13;;;;;;;7.10;2.27;;;5.50;99.90;;;;;;5033609;28;20483;-81
2023/12/22 05:53:40;;;;;;;12.70;2.10;;;5.50;99.90;;;;;;5035169;28;20875;-80
2023/12/22 05:56:18;;;;;;;9.27;2.40;;;5.50;99.90;;;;;;5034696;28;21003;-79
2023/12/22 05:58:45;;;;;;;5.20;1.73;;;5.60;99.90;;;;;;5033346;28;20456;-81
2023/12/22 06:01:15;;;;;;;9.37;2.00;;;5.70;99.90;;;;;;5033645;28;20472;-79
2023/12/22 06:03:42;;;;;;;5.47;1.97;;;5.70;99.90;;;;;;5033698;28;20492;-79
2023/12/22 06:06:10;;;;;;;11.17;1.97;;;5.70;99.90;;;;;;5033992;28;20459;-80
2023/12/22 06:08:38;;;;;;;15.40;3.60;;;5.70;99.90;;;;;;5033383;28;20941;-79
2023/12/22 06:11:04;;;;;;;12.30;2.13;;;5.70;99.90;;;;;;5033106;28;20834;-79
2023/12/22 06:13:31;;;;;;;4.90;2.13;;;5.70;99.90;;;;;;5033338;28;20455;-79
2023/12/22 06:15:58;;;;;;;11.50;2.40;;;5.60;99.90;;;;;;5033403;28;20835;-80
2023/12/22 06:18:26;;;;;;;12.53;2.27;;;5.60;99.90;;;;;;5034378;28;20467;-81
2023/12/22 06:20:53;;;;;;;7.40;1.70;;;5.60;99.90;;;;;;5035966;28;20485;-81
2023/12/22 06:23:21;;;;;;;10.20;2.00;;;5.60;99.90;;;;;;5036169;28;20491;-81
2023/12/22 06:25:48;;;;;;;9.27;2.27;;;5.70;99.90;;;;;;5035077;28;20456;-79
2023/12/22 06:28:16;;;;;;;7.17;2.47;;;5.60;99.90;;;;;;5033988;28;20470;-81
2023/12/22 06:30:44;;;;;;;9.83;2.20;;;5.60;99.90;;;;;;5032867;28;20484;-79
2023/12/22 06:33:11;;;;;;;18.67;2.37;;;5.70;99.90;;;;;;5033307;28;20491;-79
2023/12/22 06:35:40;;;;;;;7.37;2.20;;;5.60;99.90;;;;;;5030342;28;20465;-80
2023/12/22 06:38:07;;;;;;;7.40;1.97;;;5.70;99.90;;;;;;5033324;28;20513;-80
2023/12/22 06:40:36;;;;;;;6.30;1.70;;;5.60;99.90;;;;;;5032887;28;21067;-79
2023/12/22 06:43:03;;;;;;;10.43;1.80;;;5.70;99.90;;;;;;5036071;28;20867;-81
2023/12/22 06:45:30;;;;;;;8.90;3.10;;;5.60;99.90;;;;;;5037090;28;20468;-79
2023/12/22 06:47:56;;;;;;;8.93;2.60;;;5.60;99.90;;;;;;5037972;28;20964;-80
2023/12/22 06:50:23;;;;;;;6.50;3.30;;;5.60;99.90;;;;;;5036361;28;20476;-79
2023/12/22 06:52:51;;;;;;;7.37;2.50;;;5.70;99.90;;;;;;5036838;28;20454;-79
2023/12/22 06:55:17;;;;;;;5.33;1.83;;;5.80;99.90;;;;;;5036841;28;20467;-79
2023/12/22 06:57:45;;;;;;;9.80;1.70;;;5.80;99.90;;;;;;5037167;28;20466;-81
2023/12/22 07:00:13;;;;;;;4.80;1.97;;;5.80;99.90;;;;;;5037661;28;20490;-79
2023/12/22 07:02:40;;;;;;;7.27;1.70;;;5.80;99.90;;;;;;5037344;28;20456;-80
2023/12/22 07:05:32;;;;;;;11.43;1.90;;;5.80;99.90;;;;;;5036773;28;20862;-80
2023/12/22 07:07:59;;;;;;;6.27;1.83;;;5.90;99.90;;;;;;5036981;28;20836;-81
2023/12/22 07:10:25;;;;;;;7.80;1.63;;;5.90;99.90;;;;;;5037420;28;20471;-79
2023/12/22 07:12:54;;;;;;;13.60;1.90;;;6.00;99.90;;;;;;5036271;28;20464;-80
2023/12/22 07:15:21;;;;;;;6.83;1.83;;;6.00;99.90;;;;;;5037169;28;20452;-80
2023/12/22 07:17:47;;;;;;;11.90;2.37;;;6.00;99.90;;;;;;5036565;28;20462;-80
2023/12/22 07:20:17;;;;;;;6.50;1.57;;;6.10;99.90;;;;;;5037497;28;20468;-80
2023/12/22 07:22:46;;;;;;;6.20;2.00;;;6.10;99.90;;;;;;5036798;28;20452;-79
2023/12/22 07:25:13;;;;;;;6.53;1.97;;;6.20;99.90;;;;;;5036944;28;20467;-80
2023/12/22 07:27:40;;;;;;;8.27;2.00;;;6.20;99.90;;;;;;5036511;28;20821;-80
2023/12/22 07:30:11;;;;;;;10.07;2.20;;;6.20;99.90;;;;;;5035941;28;20989;-80
2023/12/22 07:32:38;;;;;;;12.60;3.30;;;6.20;99.90;;;;;;5037009;28;20463;-79
2023/12/22 07:35:06;;;;;;;12.23;3.73;;;6.20;99.90;;;;;;5036312;28;20912;-79
2023/12/22 07:37:33;;;;;;;11.20;2.70;;;6.20;99.90;;;;;;5035916;28;20448;-80
2023/12/22 07:39:59;;;;;;;7.97;2.40;;;6.20;99.90;;;;;;5035578;28;20504;-79
2023/12/22 07:42:26;;;;;;;11.07;2.93;;;6.20;99.90;;;;;;5036401;28;20466;-79
2023/12/22 07:44:53;;;;;;;14.90;3.23;;;6.30;99.90;;;;;;5035738;28;21030;-81
2023/12/22 07:47:21;;;;;;;14.50;3.50;;;6.30;99.90;;;;;;5035671;28;20546;-80
2023/12/22 07:49:49;;;;;;;7.87;2.53;;;6.30;99.90;;;;;;5036133;28;20479;-79
2023/12/22 07:52:16;;;;;;;6.63;2.50;;;6.40;99.90;;;;;;5035883;28;20484;-80
2023/12/22 07:54:43;;;;;;;10.53;3.00;;;6.40;99.90;;;;;;5035053;28;20456;-80
2023/12/22 07:57:10;;;;;;;10.83;2.23;;;6.40;99.90;;;;;;5035612;28;20566;-80
2023/12/22 07:59:37;;;;;;;11.20;3.07;;;6.50;99.90;;;;;;5035500;28;20510;-79
2023/12/22 08:02:04;;;;;;;6.20;1.80;;;6.50;99.90;;;;;;5033650;28;20456;-79
2023/12/22 08:04:32;;;;;;;10.90;2.30;;;6.50;99.90;;;;;;5036962;28;20574;-80
2023/12/22 08:06:59;;;;;;;13.57;3.50;;;6.50;99.90;;;;;;5035849;28;20484;-80
2023/12/22 08:09:26;;;;;;;7.37;2.50;;;6.60;99.90;;;;;;5035797;28;21004;-80
2023/12/22 08:11:56;;;;;;;16.50;2.47;;;6.70;99.90;;;;;;5036360;28;20531;-79
2023/12/22 08:14:22;;;;;;;13.40;3.50;;;6.70;99.90;;;;;;5036432;28;20452;-80
2023/12/22 08:16:50;;;;;;;14.00;3.17;;;6.80;99.90;;;;;;5035774;28;20461;-79
2023/12/22 08:19:17;;;;;;;7.80;2.57;;;6.90;99.90;;;;;;5036395;28;20444;-80
2023/12/22 08:21:45;;;;;;;8.37;3.20;;;6.90;99.90;;;;;;5035859;28;20465;-81
2023/12/22 08:24:12;;;;;;;8.77;3.27;;;7.00;99.90;;;;;;5036112;28;20492;-79
2023/12/22 08:26:39;;;;;;;9.50;3.30;;;7.10;99.90;;;;;;5037136;28;20461;-80
2023/12/22 08:29:07;;;;;;;9.60;2.37;;;7.20;99.90;;;;;;5036900;28;20509;-79
2023/12/22 08:31:34;;;;;;;9.47;3.70;;;7.20;99.90;;;;;;5036551;28;20899;-80
2023/12/22 08:34:00;;;;;;;11.67;3.13;;;7.30;99.90;;;;;;5036117;28;20445;-80
2023/12/22 08:36:27;;;;;;;12.67;3.50;;;7.40;99.90;;;;;;5036426;28;20453;-80
2023/12/22 08:38:55;;;;;;;16.00;3.97;;;7.50;99.90;;;;;;5032759;28;20475;-80
2023/12/22 08:41:22;;;;;;;15.10;4.30;;;7.60;99.90;;;;;;5035290;28;20465;-80
2023/12/22 08:43:49;;;;;;;14.83;4.57;;;7.60;99.90;;;;;;5035376;28;20495;-79
2023/12/22 08:46:16;;;;;;;10.90;3.17;;;7.70;99.90;;;;;;5035896;28;20456;-80
2023/12/22 08:48:43;;;;;;;22.10;4.50;;;7.80;99.90;;;;;;5035897;28;20540;-80
2023/12/22 08:51:08;;;;;;;14.07;3.77;;;7.80;99.90;;;;;;5038160;28;21052;-80
2023/12/22 08:53:37;;;;;;;16.17;4.67;;;7.80;99.90;;;;;;5035302;28;20504;-78
2023/12/22 08:56:30;;;;;;;11.47;3.53;;;7.90;99.90;;;;;;5028710;28;20207;-79
2023/12/22 08:58:58;;;;;;;16.83;4.93;;;7.90;99.90;;;;;;5034242;28;20821;-79
2023/12/22 09:01:26;;;;;;;16.30;4.30;;;8.00;99.90;;;;;;5033934;28;21015;-79
2023/12/22 09:03:53;;;;;;;22.93;4.43;;;8.00;99.90;;;;;;5035962;28;20490;-79
2023/12/22 09:06:21;;;;;;;24.87;5.30;;;8.10;99.90;;;;;;5034798;28;20461;-80
2023/12/22 09:08:49;;;;;;;19.30;5.10;;;8.10;99.90;;;;;;5034761;28;20888;-79
2023/12/22 09:11:19;;;;;;;20.60;5.50;;;8.10;99.90;;;;;;5035549;28;20493;-79
2023/12/22 09:13:45;;;;;;;26.20;5.97;;;8.20;99.90;;;;;;5035477;28;20449;-79
2023/12/22 09:16:14;;;;;;;21.67;4.70;;;8.20;99.90;;;;;;5035870;28;20462;-80
2023/12/22 09:18:42;;;;;;;22.27;5.73;;;8.20;99.90;;;;;;5035554;28;20461;-80
2023/12/22 09:21:09;;;;;;;21.57;4.90;;;8.20;99.90;;;;;;5035100;28;20505;-80
2023/12/22 09:23:35;;;;;;;17.00;5.23;;;8.20;99.90;;;;;;5035630;28;20493;-79
2023/12/22 09:26:04;;;;;;;20.03;5.40;;;8.30;99.90;;;;;;5036282;28;20461;-80
2023/12/22 09:28:32;;;;;;;12.53;3.97;;;8.10;99.90;;;;;;5035906;28;20461;-79
2023/12/22 09:30:59;;;;;;;15.20;3.97;;;8.00;99.90;;;;;;5037687;28;20837;-81
2023/12/22 09:33:26;;;;;;;14.07;2.70;;;7.90;99.90;;;;;;5040789;28;20473;-80
2023/12/22 09:35:53;;;;;;;15.10;3.40;;;7.70;99.90;;;;;;5040555;28;20470;-81
2023/12/22 09:38:20;;;;;;;15.10;3.10;;;7.70;99.90;;;;;;5039080;28;20896;-80
2023/12/22 09:40:47;;;;;;;7.20;3.17;;;7.60;99.90;;;;;;5033089;28;20473;-81
2023/12/22 09:43:18;;;;;;;9.30;2.50;;;7.60;99.90;;;;;;5038079;28;20464;-80
2023/12/22 09:45:47;;;;;;;17.80;8.13;;;7.60;99.90;;;;;;5036729;28;20470;-80
2023/12/22 09:48:17;;;;;;;7.53;4.13;;;7.50;99.90;;;;;;5033854;28;20725;-79
2023/12/22 09:50:44;;;;;;;10.50;2.77;;;7.50;99.90;;;;;;5036875;28;20469;-79
2023/12/22 09:53:13;;;;;;;6.73;2.30;;;7.60;99.90;;;;;;5037135;28;20547;-79
2023/12/22 09:55:40;;;;;;;10.60;2.20;;;7.50;99.90;;;;;;5036012;28;20658;-78
2023/12/22 09:58:09;;;;;;;5.37;2.00;;;7.40;99.90;;;;;;5037541;28;20464;-78
2023/12/22 10:00:37;;;;;;;9.03;3.20;;;7.40;99.90;;;;;;5035553;28;20477;-78
2023/12/22 10:03:07;;;;;;;8.97;2.60;;;7.40;99.90;;;;;;5035728;28;20457;-79
2023/12/22 10:05:34;;;;;;;7.90;2.40;;;7.50;99.90;;;;;;5036092;28;20502;-78
2023/12/22 10:08:02;;;;;;;7.87;2.57;;;7.40;99.90;;;;;;5034855;28;20544;-79
2023/12/22 10:10:30;;;;;;;10.73;3.70;;;7.50;99.90;;;;;;5034805;28;20479;-79
2023/12/22 10:12:57;;;;;;;10.40;3.37;;;7.50;99.90;;;;;;5034487;28;21176;-79
2023/12/22 10:15:24;;;;;;;10.17;2.90;;;7.50;99.90;;;;;;5034249;28;20876;-80
2023/12/22 10:17:51;;;;;;;7.07;2.37;;;7.50;99.90;;;;;;5034464;28;20551;-80
2023/12/22 10:20:20;;;;;;;6.83;3.17;;;7.40;99.90;;;;;;5034465;28;20952;-79
2023/12/22 10:22:47;;;;;;;7.17;3.53;;;7.50;99.90;;;;;;5034677;28;20528;-80
2023/12/22 10:25:16;;;;;;;11.67;4.00;;;7.60;99.90;;;;;;5035140;28;20489;-79
2023/12/22 10:27:43;;;;;;;16.63;4.60;;;7.50;99.90;;;;;;5035634;28;20456;-80
2023/12/22 10:30:11;;;;;;;8.30;3.80;;;7.50;99.90;;;;;;5035661;28;20476;-79
2023/12/22 10:32:42;;;;;;;8.03;3.70;;;7.60;99.90;;;;;;5038708;28;20886;-80
2023/12/22 10:35:09;;;;;;;9.03;4.50;;;7.60;99.90;;;;;;5040591;28;20468;-80
2023/12/22 10:37:38;;;;;;;21.20;5.17;;;7.70;99.90;;;;;;5043717;28;20455;-78
2023/12/22 10:40:10;;;;;;;14.03;6.37;;;7.70;99.90;;;;;;5044468;28;20503;-79
2023/12/22 10:42:37;;;;;;;8.93;4.10;;;7.70;99.90;;;;;;5037080;28;20942;-79
2023/12/22 10:45:05;;;;;;;10.77;4.30;;;7.70;99.90;;;;;;5039998;28;20499;-79
2023/12/22 10:47:32;;;;;;;12.90;3.90;;;7.70;99.90;;;;;;5039531;28;20461;-79
2023/12/22 10:50:04;;;;;;;13.80;4.13;;;7.70;99.90;;;;;;5035173;28;20490;-77
2023/12/22 10:52:30;;;;;;;12.90;4.23;;;7.70;99.90;;;;;;5033953;28;20453;-82
2023/12/22 10:55:02;;;;;;;10.77;4.00;;;7.80;99.90;;;;;;5037137;28;20520;-80
2023/12/22 10:57:29;;;;;;;12.87;4.97;;;7.70;99.90;;;;;;5034185;28;20488;-81
2023/12/22 10:59:58;;;;;;;12.17;3.83;;;7.70;99.90;;;;;;5033930;28;20484;-81
2023/12/22 11:02:28;;;;;;;8.10;3.63;;;7.80;99.90;;;;;;5035663;28;20553;-80
2023/12/22 11:05:01;;;;;;;9.63;2.67;;;7.70;99.90;;;;;;5040814;28;20562;-81
2023/12/22 11:07:30;;;;;;;17.20;3.97;;;7.70;99.90;;;;;;5035435;28;20457;-78
2023/12/22 11:09:58;;;;;;;7.67;2.87;;;7.70;99.90;;;;;;5035479;28;20929;-80
2023/12/22 11:12:27;;;;;;;6.30;1.93;;;7.70;99.90;;;;;;5035413;28;20462;-81
2023/12/22 11:14:55;;;;;;;7.30;1.80;;;7.70;99.90;;;;;;5026542;28;20537;-80
2023/12/22 11:17:23;;;;;;;11.23;2.17;;;7.70;99.90;;;;;;5035181;28;20547;-80
2023/12/22 11:19:52;;;;;;;6.20;2.50;;;7.70;99.90;;;;;;5027603;28;20545;-80
2023/12/22 11:22:20;;;;;;;6.33;1.90;;;7.70;99.90;;;;;;5034758;28;20548;-80
2023/12/22 11:24:48;;;;;;;7.60;1.53;;;7.80;99.90;;;;;;5035758;28;20498;-77
2023/12/22 11:27:18;;;;;;;6.07;1.60;;;7.80;99.90;;;;;;5035090;28;20457;-80
2023/12/22 11:29:50;;;;;;;3.37;1.67;;;7.80;99.90;;;;;;5035956;28;20473;-80
2023/12/22 11:32:17;;;;;;;11.93;2.10;;;7.80;99.90;;;;;;5038359;28;20453;-77
2023/12/22 11:34:45;;;;;;;4.67;2.00;;;7.80;99.90;;;;;;5038533;28;20825;-81
2023/12/22 11:37:13;;;;;;;3.43;1.70;;;7.80;99.90;;;;;;5039634;28;20457;-78
2023/12/22 11:39:40;;;;;;;5.33;1.77;;;7.80;99.90;;;;;;5031507;28;20484;-79
2023/12/22 11:42:09;;;;;;;6.87;1.83;;;7.90;99.90;;;;;;5043482;28;20580;-79
2023/12/22 11:44:36;;;;;;;4.00;1.40;;;7.80;99.90;;;;;;5038405;28;20494;-78
2023/12/22 11:47:09;;;;;;;4.30;1.30;;;7.80;99.90;;;;;;5037741;28;20455;-78
2023/12/22 11:49:37;;;;;;;5.40;1.70;;;7.90;99.90;;;;;;5033893;28;20800;-78
2023/12/22 11:52:13;;;;;;;2.53;1.20;;;7.90;99.90;;;;;;5034620;28;20446;-78
2023/12/22 11:54:51;;;;;;;2.93;1.40;;;7.90;99.90;;;;;;5036126;28;20947;-78
2023/12/22 11:57:34;;;;;;;3.87;1.67;;;7.90;99.90;;;;;;5036774;28;20496;-78
2023/12/22 12:00:05;;;;;;;4.63;1.37;;;7.90;99.90;;;;;;5028631;28;20494;-77
2023/12/22 12:02:35;;;;;;;2.60;1.20;;;8.00;99.90;;;;;;5037987;28;20477;-78
2023/12/22 12:05:03;;;;;;;3.07;1.17;;;8.00;99.90;;;;;;5039667;28;20489;-81
2023/12/22 12:07:45;;;;;;;5.60;1.60;;;8.10;99.90;;;;;;5039265;28;20468;-80
2023/12/22 12:10:14;;;;;;;3.00;1.53;;;8.00;99.90;;;;;;5037899;28;20474;-79
2023/12/22 12:12:41;;;;;;;6.93;1.83;;;8.00;99.90;;;;;;5038839;28;20478;-79
2023/12/22 12:15:09;;;;;;;7.17;1.90;;;8.00;99.90;;;;;;5039675;28;20452;-80
2023/12/22 12:17:42;;;;;;;4.03;2.50;;;8.00;99.90;;;;;;5036948;28;20477;-79
2023/12/22 12:20:10;;;;;;;2.77;1.60;;;8.00;99.90;;;;;;5037233;28;20656;-80
2023/12/22 12:22:39;;;;;;;4.63;1.70;;;8.00;99.90;;;;;;5037757;28;20474;-79
2023/12/22 12:25:10;;;;;;;3.93;1.80;;;8.10;99.90;;;;;;5036959;28;20503;-80
2023/12/22 12:27:39;;;;;;;3.37;1.90;;;8.10;99.90;;;;;;5036198;28;20459;-77
2023/12/22 12:30:11;;;;;;;5.00;2.80;;;8.20;99.90;;;;;;5035593;28;20482;-78
2023/12/22 12:32:40;;;;;;;3.67;2.70;;;8.20;99.90;;;;;;5036157;28;20449;-79
2023/12/22 12:35:08;;;;;;;6.50;2.77;;;8.30;99.90;;;;;;5037320;28;20464;-79
2023/12/22 12:37:35;;;;;;;5.10;2.50;;;8.30;99.90;;;;;;5036316;28;20458;-76
2023/12/22 12:40:04;;;;;;;4.70;2.97;;;8.30;99.90;;;;;;5010817;28;20469;-81
2023/12/22 12:42:32;;;;;;;4.80;2.47;;;8.30;99.90;;;;;;5035363;28;20957;-78
2023/12/22 12:44:59;;;;;;;5.43;3.00;;;8.30;99.90;;;;;;5036053;28;20487;-79
2023/12/22 12:47:26;;;;;;;4.90;2.90;;;8.40;99.90;;;;;;5037682;28;20461;-77
2023/12/22 12:49:59;;;;;;;9.17;3.30;;;8.50;99.90;;;;;;5036751;28;20946;-78
2023/12/22 12:52:26;;;;;;;5.30;2.20;;;8.50;99.90;;;;;;5035170;28;20463;-78
2023/12/22 12:54:54;;;;;;;3.70;2.43;;;8.60;99.90;;;;;;5036183;28;21034;-79
2023/12/22 12:57:21;;;;;;;5.27;2.10;;;8.70;99.90;;;;;;5035428;28;20458;-78